Time;durP1;ratioP1;P1;durP2;ratioP2;P2;SDS_P1;SDS_P2;PMS_P1;PMS_P2;Temp;Humidity;BMP_temperature;BMP_pressure;BME280_temperature;BME280_humidity;BME280_pressure;Samples;Min_cycle;Max_cycle;Signal;HPM_P1;HPM_P2
2023/10/31 00:01:36;;;;;;;1.80;1.67;;;;;;;11.65;100.00;94905.09;5030816;28;104819;-80
2023/10/31 00:04:03;;;;;;;2.40;1.80;;;;;;;11.65;100.00;94910.44;5029049;28;105162;-79
2023/10/31 00:06:31;;;;;;;2.57;2.37;;;;;;;11.63;100.00;94923.25;5029828;28;102121;-78
2023/10/31 00:08:58;;;;;;;1.67;1.40;;;;;;;11.54;100.00;94922.28;5029862;28;104329;-79
2023/10/31 00:11:25;;;;;;;0.70;0.70;;;;;;;11.41;100.00;94936.34;5029208;28;105484;-79
2023/10/31 00:13:52;;;;;;;0.70;0.67;;;;;;;11.35;100.00;94937.53;5029821;28;102057;-81
2023/10/31 00:16:19;;;;;;;0.93;0.77;;;;;;;11.30;100.00;94934.94;5029520;28;105531;-81
2023/10/31 00:18:46;;;;;;;1.17;0.70;;;;;;;11.21;100.00;94949.97;5032456;28;105312;-79
2023/10/31 00:21:13;;;;;;;1.97;0.77;;;;;;;11.14;100.00;94953.00;5029490;28;105400;-79
2023/10/31 00:23:45;;;;;;;0.50;0.50;;;;;;;11.11;100.00;94953.56;5028886;28;105486;-79
2023/10/31 00:26:12;;;;;;;1.20;0.90;;;;;;;11.02;100.00;94957.16;5029479;28;102218;-79
2023/10/31 00:28:42;;;;;;;1.23;1.00;;;;;;;10.95;100.00;94954.09;5029663;28;105482;-80
2023/10/31 00:31:11;;;;;;;0.97;0.90;;;;;;;10.94;100.00;94963.13;5028614;28;105474;-80
2023/10/31 00:33:38;;;;;;;0.50;0.50;;;;;;;10.85;100.00;94956.88;5030719;28;101854;-80
2023/10/31 00:36:05;;;;;;;1.07;0.97;;;;;;;10.85;100.00;94960.31;5030784;28;103204;-80
2023/10/31 00:38:32;;;;;;;0.40;0.40;;;;;;;10.78;100.00;94951.09;5028811;28;104433;-80
2023/10/31 00:41:01;;;;;;;0.50;0.50;;;;;;;10.77;100.00;94952.19;5032783;28;102031;-80
2023/10/31 00:43:28;;;;;;;0.70;0.70;;;;;;;10.70;100.00;94952.56;5028659;28;105341;-79
2023/10/31 00:45:55;;;;;;;1.33;1.10;;;;;;;10.62;100.00;94955.81;5029214;28;101959;-79
2023/10/31 00:48:21;;;;;;;1.50;1.23;;;;;;;10.63;100.00;94960.06;5029119;28;105052;-80
2023/10/31 00:50:48;;;;;;;1.27;1.17;;;;;;;10.62;100.00;94960.34;5028549;28;105462;-80
2023/10/31 00:53:16;;;;;;;0.80;0.77;;;;;;;10.64;100.00;94969.63;5029235;28;101951;-80
2023/10/31 00:55:44;;;;;;;1.20;1.10;;;;;;;10.60;100.00;94968.63;5029134;28;104898;-81
2023/10/31 00:58:12;;;;;;;0.87;0.87;;;;;;;10.65;100.00;94962.44;5027371;28;105083;-81
2023/10/31 01:00:40;;;;;;;0.67;0.67;;;;;;;10.67;100.00;94962.94;5032520;28;101909;-80
2023/10/31 01:03:07;;;;;;;0.97;0.83;;;;;;;10.63;100.00;94959.28;5028528;28;105342;-80
2023/10/31 01:05:34;;;;;;;0.80;0.80;;;;;;;10.59;100.00;94959.06;5028611;27;102111;-80
2023/10/31 01:08:01;;;;;;;2.17;0.87;;;;;;;10.59;100.00;94963.59;5028949;28;105194;-80
2023/10/31 01:10:28;;;;;;;1.77;0.50;;;;;;;10.54;100.00;94963.63;5028345;28;105425;-80
2023/10/31 01:12:54;;;;;;;0.67;0.63;;;;;;;10.54;100.00;94959.13;5028747;28;102211;-82
2023/10/31 01:15:24;;;;;;;0.63;0.30;;;;;;;10.57;100.00;94963.84;5029079;28;104515;-82
2023/10/31 01:17:52;;;;;;;0.40;0.40;;;;;;;10.59;100.00;94950.28;5028296;28;105114;-81
2023/10/31 01:20:19;;;;;;;0.40;0.40;;;;;;;10.55;100.00;94938.63;5028905;28;101895;-81
2023/10/31 01:22:46;;;;;;;0.67;0.63;;;;;;;10.51;100.00;94937.63;5031656;28;105151;-81
2023/10/31 01:25:13;;;;;;;0.70;0.70;;;;;;;10.49;100.00;94937.13;5028841;28;102181;-82
2023/10/31 01:27:41;;;;;;;1.40;0.40;;;;;;;10.40;100.00;94930.84;5028476;28;105065;-82
2023/10/31 01:30:09;;;;;;;0.47;0.47;;;;;;;10.39;100.00;94929.25;5028091;28;105174;-85
2023/10/31 01:32:38;;;;;;;0.47;0.30;;;;;;;10.41;100.00;94929.78;5028632;28;101960;-84
2023/10/31 01:35:05;;;;;;;0.67;0.33;;;;;;;10.38;100.00;94935.66;5028589;28;105211;-83
2023/10/31 01:37:32;;;;;;;1.03;0.80;;;;;;;10.39;100.00;94945.22;5028109;28;105530;-81
2023/10/31 01:39:59;;;;;;;2.80;0.70;;;;;;;10.35;100.00;94952.19;5028593;28;102040;-81
2023/10/31 01:42:26;;;;;;;2.27;0.60;;;;;;;10.36;100.00;94961.72;5028607;28;103897;-81
2023/10/31 01:44:53;;;;;;;0.80;0.50;;;;;;;10.33;100.00;94959.63;5031268;28;105231;-82
2023/10/31 01:47:20;;;;;;;1.73;0.70;;;;;;;10.28;100.00;94954.38;5028907;28;103744;-79
2023/10/31 01:49:48;;;;;;;1.07;0.50;;;;;;;10.27;100.00;94950.94;5027801;28;105468;-79
2023/10/31 01:52:15;;;;;;;1.80;0.50;;;;;;;10.27;100.00;94963.41;5028439;28;102211;-79
2023/10/31 01:54:43;;;;;;;1.33;0.80;;;;;;;10.25;100.00;94957.59;5028426;28;105187;-80
2023/10/31 01:57:10;;;;;;;2.30;0.70;;;;;;;10.23;100.00;94957.09;5027734;28;104760;-81
2023/10/31 01:59:38;;;;;;;2.10;0.90;;;;;;;10.21;100.00;94954.72;5028636;28;101902;-86
2023/10/31 02:02:06;;;;;;;1.13;0.60;;;;;;;10.16;100.00;94967.25;5028482;28;105342;-86
2023/10/31 02:04:33;;;;;;;2.47;0.63;;;;;;;10.11;100.00;94959.34;5027197;28;105519;-86
2023/10/31 02:07:02;;;;;;;0.70;0.50;;;;;;;10.10;100.00;94974.50;5031871;28;101903;-87
2023/10/31 02:09:30;;;;;;;0.50;0.30;;;;;;;10.01;100.00;94970.03;5028367;27;105097;-87
2023/10/31 02:11:57;;;;;;;0.93;0.40;;;;;;;9.99;100.00;94969.53;5031599;28;102007;-86
2023/10/31 02:14:25;;;;;;;0.20;0.20;;;;;;;9.98;100.00;94981.22;5031781;28;104162;-86
2023/10/31 02:16:52;;;;;;;0.30;0.30;;;;;;;9.97;100.00;94985.72;5031195;28;105452;-85
2023/10/31 02:19:21;;;;;;;0.30;0.30;;;;;;;9.97;100.00;94984.97;5031466;28;101975;-85
2023/10/31 02:21:50;;;;;;;0.63;0.63;;;;;;;9.98;100.00;94987.31;5031517;28;105498;-85
2023/10/31 02:24:17;;;;;;;0.53;0.53;;;;;;;10.05;100.00;94985.19;5031159;28;104503;-85
2023/10/31 02:26:44;;;;;;;0.70;0.70;;;;;;;10.08;100.00;94981.16;5031272;28;102002;-85
2023/10/31 02:29:11;;;;;;;0.40;0.40;;;;;;;10.05;100.00;94979.88;5034293;28;104925;-85
2023/10/31 02:31:38;;;;;;;1.17;0.73;;;;;;;10.11;100.00;94985.91;5031425;28;101974;-85
2023/10/31 02:34:05;;;;;;;0.80;0.80;;;;;;;10.07;100.00;94996.28;5031430;28;105470;-85
2023/10/31 02:36:33;;;;;;;0.60;0.60;;;;;;;10.01;100.00;94997.38;5030843;28;105658;-85
2023/10/31 02:39:02;;;;;;;0.80;0.80;;;;;;;10.03;100.00;95005.09;5031275;28;101972;-85
2023/10/31 02:41:29;;;;;;;1.50;1.03;;;;;;;10.00;100.00;95016.25;5031317;28;103000;-85
2023/10/31 02:43:57;;;;;;;1.80;1.20;;;;;;;10.03;100.00;95011.16;5030689;28;105478;-85
2023/10/31 02:46:24;;;;;;;0.83;0.63;;;;;;;10.00;100.00;95017.06;5031012;28;101974;-85
2023/10/31 02:48:51;;;;;;;1.00;1.00;;;;;;;10.03;100.00;95015.72;5031211;28;105561;-85
2023/10/31 02:51:18;;;;;;;0.67;0.60;;;;;;;9.97;100.00;95016.81;5034183;28;105366;-85
2023/10/31 02:53:45;;;;;;;0.83;0.50;;;;;;;9.96;100.00;95015.22;5031139;28;103603;-84
2023/10/31 02:56:13;;;;;;;0.93;0.60;;;;;;;10.01;100.00;95005.34;5030248;28;105550;-85
2023/10/31 02:58:40;;;;;;;0.30;0.30;;;;;;;9.99;100.00;95004.84;5031088;28;102063;-87
2023/10/31 03:01:07;;;;;;;0.70;0.70;;;;;;;10.07;100.00;95011.44;5031077;28;104976;-87
2023/10/31 03:03:34;;;;;;;0.30;0.30;;;;;;;10.08;100.00;95013.03;5030339;28;104640;-81
2023/10/31 03:06:01;;;;;;;0.53;0.40;;;;;;;10.04;100.00;95012.00;5030506;27;101845;-81
2023/10/31 03:08:28;;;;;;;0.40;0.40;;;;;;;10.03;100.00;95018.38;5030885;28;105056;-81
2023/10/31 03:10:55;;;;;;;0.30;0.30;;;;;;;9.99;100.00;95026.09;5033569;28;105545;-81
2023/10/31 03:13:24;;;;;;;0.40;0.40;;;;;;;9.98;100.00;95026.38;5030849;28;105077;-81
2023/10/31 03:15:51;;;;;;;1.50;0.40;;;;;;;9.95;100.00;95027.72;5030299;28;105064;-81
2023/10/31 03:18:18;;;;;;;0.60;0.53;;;;;;;9.97;100.00;95027.44;5030653;28;102006;-81
2023/10/31 03:20:46;;;;;;;0.70;0.50;;;;;;;9.99;100.00;95027.94;5030217;27;104104;-81
2023/10/31 03:23:13;;;;;;;0.50;0.50;;;;;;;9.92;100.00;95035.47;5029330;28;105556;-80
2023/10/31 03:25:40;;;;;;;1.03;0.50;;;;;;;9.92;100.00;95035.47;5030317;28;102046;-80
2023/10/31 03:28:18;;;;;;;0.40;0.40;;;;;;;9.89;100.00;95039.47;5032216;27;102520;-80
2023/10/31 03:30:47;;;;;;;0.30;0.30;;;;;;;9.91;100.00;95041.81;5029777;28;105285;-81
2023/10/31 03:33:15;;;;;;;0.50;0.50;;;;;;;9.95;100.00;95043.66;5033760;28;101887;-81
2023/10/31 03:35:42;;;;;;;1.03;0.50;;;;;;;9.95;100.00;95056.13;5029696;28;103977;-81
2023/10/31 03:38:09;;;;;;;0.77;0.77;;;;;;;10.01;100.00;95055.81;5030027;28;102064;-83
2023/10/31 03:40:36;;;;;;;1.20;0.87;;;;;;;10.07;100.00;95059.22;5030166;28;105355;-82
2023/10/31 03:43:04;;;;;;;0.83;0.80;;;;;;;10.07;100.00;95064.53;5031010;28;102923;-82
2023/10/31 03:45:31;;;;;;;0.63;0.60;;;;;;;9.99;100.00;95063.28;5030213;28;101933;-83
2023/10/31 03:48:01;;;;;;;2.33;1.03;;;;;;;10.00;100.00;95070.16;5030113;28;104538;-84
2023/10/31 03:50:28;;;;;;;1.13;1.03;;;;;;;10.05;100.00;95072.00;5029431;28;105584;-84
2023/10/31 03:52:55;;;;;;;1.50;1.07;;;;;;;10.01;100.00;95078.91;5030256;28;101993;-84
2023/10/31 03:55:23;;;;;;;0.50;0.50;;;;;;;9.99;100.00;95097.00;5032935;28;105530;-85
2023/10/31 03:57:50;;;;;;;0.57;0.57;;;;;;;10.02;100.00;95093.75;5030004;28;101922;-77
2023/10/31 04:00:18;;;;;;;0.90;0.90;;;;;;;10.03;100.00;95092.72;5029994;28;105282;-77
2023/10/31 04:02:46;;;;;;;1.03;0.70;;;;;;;10.05;100.00;95098.56;5029318;28;105502;-77
2023/10/31 04:05:14;;;;;;;1.20;0.57;;;;;;;10.01;100.00;95110.78;5029608;27;102478;-77
2023/10/31 04:07:41;;;;;;;1.90;1.00;;;;;;;9.99;100.00;95104.97;5029898;28;104329;-77
2023/10/31 04:10:09;;;;;;;0.50;0.50;;;;;;;9.98;100.00;95098.06;5029468;28;105462;-77
2023/10/31 04:12:36;;;;;;;1.10;0.80;;;;;;;10.03;100.00;95103.34;5029966;28;101873;-77
2023/10/31 04:15:03;;;;;;;0.70;0.70;;;;;;;10.03;100.00;95106.00;5029557;28;105498;-77
2023/10/31 04:17:30;;;;;;;0.60;0.57;;;;;;;10.01;100.00;95098.31;5032677;28;105391;-77
2023/10/31 04:19:57;;;;;;;1.40;0.60;;;;;;;10.02;100.00;95089.25;5029714;28;104883;-77
2023/10/31 04:22:25;;;;;;;0.63;0.60;;;;;;;10.07;100.00;95083.13;5028917;28;106031;-78
2023/10/31 04:24:52;;;;;;;2.63;0.80;;;;;;;10.06;100.00;95094.84;5031167;28;101758;-78
2023/10/31 04:27:19;;;;;;;0.63;0.63;;;;;;;10.04;100.00;95087.13;5029690;28;105085;-78
2023/10/31 04:29:47;;;;;;;0.67;0.67;;;;;;;10.04;100.00;95087.13;5029043;28;105581;-78
2023/10/31 04:32:13;;;;;;;1.00;0.40;;;;;;;10.07;100.00;95093.75;5029423;28;102240;-84
2023/10/31 04:34:41;;;;;;;0.60;0.60;;;;;;;10.04;100.00;95087.13;5030947;28;102993;-84
2023/10/31 04:37:08;;;;;;;0.77;0.77;;;;;;;10.03;100.00;95111.31;5029147;28;105673;-84
2023/10/31 04:39:36;;;;;;;0.80;0.80;;;;;;;10.01;100.00;95110.78;5034426;28;101819;-81
2023/10/31 04:42:04;;;;;;;0.50;0.50;;;;;;;9.95;100.00;95106.56;5028829;28;105349;-81
2023/10/31 04:44:31;;;;;;;0.53;0.53;;;;;;;9.92;100.00;95112.47;5029351;28;102498;-82
2023/10/31 04:46:58;;;;;;;1.27;0.60;;;;;;;9.96;100.00;95102.84;5029268;28;105897;-79
2023/10/31 04:49:24;;;;;;;1.23;0.70;;;;;;;9.96;100.00;95097.53;5028745;28;105537;-78
2023/10/31 04:51:51;;;;;;;0.50;0.50;;;;;;;9.96;100.00;95094.88;5029485;28;102042;-78
2023/10/31 04:54:18;;;;;;;0.60;0.60;;;;;;;9.94;100.00;95089.06;5029273;28;105305;-81
2023/10/31 04:56:48;;;;;;;0.60;0.50;;;;;;;9.89;100.00;95086.44;5028622;28;105580;-81
2023/10/31 04:59:15;;;;;;;1.30;0.33;;;;;;;10.05;100.00;95085.28;5029100;28;101894;-81
2023/10/31 05:01:49;;;;;;;0.40;0.40;;;;;;;10.04;100.00;95118.22;5031918;28;105377;-81
2023/10/31 05:04:16;;;;;;;0.40;0.40;;;;;;;10.12;100.00;95128.25;5028777;28;101876;-79
2023/10/31 05:06:44;;;;;;;0.80;0.50;;;;;;;10.07;100.00;95129.09;5028918;28;103915;-83
2023/10/31 05:09:11;;;;;;;0.63;0.50;;;;;;;10.07;100.00;95141.56;5028332;28;104446;-83
2023/10/31 05:11:38;;;;;;;0.37;0.37;;;;;;;10.05;100.00;95135.75;5028928;28;101889;-82
2023/10/31 05:14:10;;;;;;;1.17;0.30;;;;;;;10.00;100.00;95133.09;5028883;28;105235;-81
2023/10/31 05:16:46;;;;;;;1.60;0.50;;;;;;;10.00;100.00;95117.97;5028456;28;105713;-82
2023/10/31 05:19:12;;;;;;;0.30;0.30;;;;;;;10.02;100.00;95121.13;5028792;28;102027;-77
2023/10/31 05:21:40;;;;;;;0.30;0.30;;;;;;;9.99;100.00;95127.00;5031604;28;105768;-77
2023/10/31 05:24:08;;;;;;;0.80;0.33;;;;;;;9.99;100.00;95134.97;5028776;28;102184;-76
2023/10/31 05:26:35;;;;;;;2.47;0.70;;;;;;;9.99;100.00;95142.13;5028645;28;105437;-76
2023/10/31 05:29:02;;;;;;;2.77;0.70;;;;;;;9.96;100.00;95132.06;5028309;28;104015;-85
2023/10/31 05:31:30;;;;;;;1.03;0.50;;;;;;;9.92;100.00;95131.03;5028434;28;102129;-81
2023/10/31 05:33:57;;;;;;;0.60;0.50;;;;;;;9.92;100.00;95126.50;5028700;28;104949;-82
2023/10/31 05:36:25;;;;;;;0.63;0.40;;;;;;;9.92;100.00;95146.97;5027821;28;105552;-82
2023/10/31 05:38:52;;;;;;;1.43;0.70;;;;;;;9.88;100.00;95151.25;5028691;28;101963;-79
2023/10/31 05:41:19;;;;;;;0.77;0.70;;;;;;;9.78;100.00;95156.59;5028628;28;106018;-79
2023/10/31 05:43:46;;;;;;;0.80;0.60;;;;;;;9.80;100.00;95155.28;5031349;27;105683;-79
2023/10/31 05:46:14;;;;;;;1.90;0.70;;;;;;;9.75;100.00;95141.25;5031595;28;105558;-79
2023/10/31 05:48:45;;;;;;;0.43;0.40;;;;;;;9.77;100.00;95144.41;5031511;28;103922;-84
2023/10/31 05:51:14;;;;;;;0.50;0.50;;;;;;;9.76;100.00;95140.19;5032141;28;101736;-82
2023/10/31 05:53:42;;;;;;;1.03;0.50;;;;;;;9.77;100.00;95153.16;5031825;28;105702;-80
2023/10/31 05:56:10;;;;;;;0.77;0.43;;;;;;;9.74;100.00;95151.06;5031147;28;105304;-82
2023/10/31 05:58:38;;;;;;;0.60;0.60;;;;;;;9.79;100.00;95158.19;5031742;28;101880;-83
2023/10/31 06:01:05;;;;;;;1.03;0.60;;;;;;;9.79;100.00;95151.03;5031906;28;105610;-83
2023/10/31 06:03:32;;;;;;;0.70;0.70;;;;;;;9.75;100.00;95154.53;5031046;28;105827;-78
2023/10/31 06:06:01;;;;;;;0.90;0.83;;;;;;;9.76;100.00;95169.38;5034839;27;102087;-80
2023/10/31 06:08:28;;;;;;;1.37;0.90;;;;;;;9.76;100.00;95172.81;5031279;28;105365;-89
2023/10/31 06:10:56;;;;;;;2.03;1.93;;;;;;;9.75;100.00;95163.25;5031985;28;102088;-86
2023/10/31 06:13:25;;;;;;;2.70;1.93;;;;;;;9.74;100.00;95168.84;5031794;28;105609;-90
2023/10/31 06:15:52;;;;;;;1.50;1.40;;;;;;;9.74;100.00;95176.78;5018912;28;103815;-83
2023/10/31 06:18:20;;;;;;;1.87;1.40;;;;;;;9.74;100.00;95171.50;5028226;28;102060;-82
2023/10/31 06:20:47;;;;;;;1.00;0.93;;;;;;;9.79;100.00;95171.47;5013535;28;101750;-82
2023/10/31 06:23:15;;;;;;;3.70;1.30;;;;;;;9.84;100.00;95166.13;5011386;28;105671;-83
2023/10/31 06:25:42;;;;;;;0.80;0.80;;;;;;;9.79;100.00;95168.81;5012053;28;101962;-83
2023/10/31 06:28:09;;;;;;;0.77;0.77;;;;;;;9.83;100.00;95175.16;5015979;28;101860;-83
2023/10/31 06:30:35;;;;;;;1.17;0.90;;;;;;;9.86;100.00;95183.38;5012137;28;101957;-83
2023/10/31 06:33:02;;;;;;;0.80;0.60;;;;;;;9.82;100.00;95189.50;5011765;28;105180;-82
2023/10/31 06:35:29;;;;;;;1.40;0.80;;;;;;;9.81;100.00;95209.94;5011075;28;104254;-83
2023/10/31 06:37:57;;;;;;;0.90;0.90;;;;;;;9.81;100.00;95220.56;5011830;28;102010;-83
2023/10/31 06:40:26;;;;;;;0.60;0.60;;;;;;;9.76;100.00;95217.94;5028374;28;105437;-83
2023/10/31 06:42:53;;;;;;;0.60;0.60;;;;;;;9.73;100.00;95226.47;5011260;28;105796;-83
2023/10/31 06:45:20;;;;;;;0.60;0.60;;;;;;;9.72;100.00;95224.06;5012939;28;102104;-83
2023/10/31 06:47:47;;;;;;;0.80;0.73;;;;;;;9.77;100.00;95224.81;5011545;28;105281;-82
2023/10/31 06:50:14;;;;;;;1.30;0.57;;;;;;;9.74;100.00;95224.59;5015354;28;102822;-82
2023/10/31 06:52:41;;;;;;;0.70;0.70;;;;;;;9.76;100.00;95217.16;5011654;28;105404;-82
2023/10/31 06:55:09;;;;;;;0.60;0.60;;;;;;;9.77;100.00;95213.44;5011122;28;105407;-82
2023/10/31 06:57:37;;;;;;;1.80;0.80;;;;;;;9.89;100.00;95211.22;5010367;28;101808;-82
2023/10/31 07:00:08;;;;;;;2.63;0.93;;;;;;;9.91;100.00;95211.75;5028107;28;105160;-82
2023/10/31 07:02:36;;;;;;;0.90;0.90;;;;;;;9.90;100.00;95224.25;5011141;28;104645;-82
2023/10/31 07:05:03;;;;;;;1.90;0.87;;;;;;;9.85;100.00;95220.81;5010912;28;101946;-82
2023/10/31 07:07:32;;;;;;;1.20;1.10;;;;;;;9.94;100.00;95229.78;5011255;28;105245;-82
2023/10/31 07:09:59;;;;;;;1.80;0.90;;;;;;;9.90;100.00;95228.75;5004367;28;105905;-82
2023/10/31 07:12:26;;;;;;;1.20;0.70;;;;;;;9.84;100.00;95229.84;5009806;28;101860;-82
2023/10/31 07:14:54;;;;;;;0.70;0.70;;;;;;;9.83;100.00;95237.03;5014283;28;105006;-82
2023/10/31 07:17:21;;;;;;;1.90;1.00;;;;;;;9.87;100.00;95237.28;5018226;28;101913;-82
2023/10/31 07:19:48;;;;;;;1.10;0.93;;;;;;;9.89;100.00;95235.94;5010932;28;105973;-82
2023/10/31 07:22:15;;;;;;;1.80;0.90;;;;;;;9.89;100.00;95245.75;5010441;28;105817;-82
2023/10/31 07:24:42;;;;;;;1.07;0.80;;;;;;;9.90;100.00;95234.88;5011135;28;101950;-82
2023/10/31 07:27:09;;;;;;;0.90;0.80;;;;;;;9.91;100.00;95241.75;5027823;28;104971;-82
2023/10/31 07:29:39;;;;;;;1.77;0.70;;;;;;;9.92;100.00;95239.91;5010151;28;103991;-82
2023/10/31 07:32:08;;;;;;;1.37;0.70;;;;;;;9.97;100.00;95253.94;5014484;28;101933;-82
2023/10/31 07:34:35;;;;;;;1.30;0.70;;;;;;;9.96;100.00;95278.09;5011544;28;103000;-82
2023/10/31 07:37:02;;;;;;;1.83;0.83;;;;;;;9.95;100.00;95274.66;5011103;28;101899;-82
2023/10/31 07:39:30;;;;;;;0.83;0.83;;;;;;;9.90;100.00;95273.88;5010977;28;105101;-82
2023/10/31 07:41:56;;;;;;;0.83;0.80;;;;;;;9.93;100.00;95273.34;5027111;28;105586;-83
2023/10/31 07:44:23;;;;;;;0.60;0.60;;;;;;;9.89;100.00;95269.66;5010817;28;101922;-83
2023/10/31 07:46:50;;;;;;;0.73;0.70;;;;;;;9.90;100.00;95265.91;5027707;28;106060;-83
2023/10/31 07:49:19;;;;;;;2.70;1.27;;;;;;;9.94;100.00;95262.47;5010069;28;105296;-83
2023/10/31 07:51:47;;;;;;;0.77;0.60;;;;;;;9.94;100.00;95264.31;5010790;28;102001;-83
2023/10/31 07:54:15;;;;;;;1.10;0.97;;;;;;;9.91;100.00;95268.31;5014072;28;105320;-83
2023/10/31 07:56:42;;;;;;;2.13;0.80;;;;;;;9.93;100.00;95273.34;5010078;28;101892;-83
2023/10/31 07:59:10;;;;;;;0.70;0.70;;;;;;;9.89;100.00;95280.28;5027183;28;104951;-83
2023/10/31 08:01:36;;;;;;;0.80;0.70;;;;;;;9.86;100.00;95281.59;5026893;28;105916;-83
2023/10/31 08:04:03;;;;;;;1.37;0.70;;;;;;;9.81;100.00;95305.53;5010458;28;102109;-83
2023/10/31 08:06:32;;;;;;;0.63;0.63;;;;;;;9.78;100.00;95310.59;5010353;28;104097;-83
2023/10/31 08:08:59;;;;;;;0.87;0.70;;;;;;;9.78;100.00;95311.38;5009421;28;105718;-82
2023/10/31 08:11:26;;;;;;;1.80;0.90;;;;;;;9.79;100.00;95312.97;5010575;28;101935;-82
2023/10/31 08:13:54;;;;;;;1.43;0.80;;;;;;;9.79;100.00;95309.50;5010109;28;105642;-82
2023/10/31 08:16:21;;;;;;;0.90;0.90;;;;;;;9.78;100.00;95319.34;5013997;28;103091;-82
2023/10/31 08:18:48;;;;;;;0.87;0.87;;;;;;;9.73;100.00;95313.25;5010179;28;105331;-82
2023/10/31 08:21:14;;;;;;;3.03;1.60;;;;;;;9.74;100.00;95310.34;5009596;28;105432;-82
2023/10/31 08:23:44;;;;;;;1.80;1.50;;;;;;;9.70;100.00;95309.28;5026961;28;101938;-82
2023/10/31 08:26:12;;;;;;;3.93;1.40;;;;;;;9.73;100.00;95307.94;5009743;28;105294;-82
2023/10/31 08:28:39;;;;;;;1.20;1.00;;;;;;;9.74;100.00;95314.84;5009210;28;105136;-83
2023/10/31 08:31:06;;;;;;;1.27;1.00;;;;;;;9.80;100.00;95321.72;5010411;28;101952;-83
2023/10/31 08:33:33;;;;;;;3.70;1.30;;;;;;;9.78;100.00;95326.50;5009692;28;105650;-82
2023/10/31 08:36:01;;;;;;;3.97;1.57;;;;;;;9.78;100.00;95340.59;5009880;28;105221;-82
2023/10/31 08:38:29;;;;;;;2.40;1.10;;;;;;;9.82;100.00;95343.50;5012722;28;102017;-82
2023/10/31 08:40:57;;;;;;;3.83;1.10;;;;;;;9.78;100.00;95342.44;5009589;28;105096;-82
2023/10/31 08:43:24;;;;;;;4.13;1.20;;;;;;;9.80;100.00;95345.59;5009636;28;101976;-82
2023/10/31 08:45:51;;;;;;;2.63;1.10;;;;;;;9.84;100.00;95344.81;5010115;28;103218;-82
2023/10/31 08:48:18;;;;;;;4.53;1.30;;;;;;;9.88;100.00;95342.41;5009117;28;105538;-82
2023/10/31 08:50:45;;;;;;;3.67;1.30;;;;;;;9.87;100.00;95336.28;5009895;28;101854;-82
2023/10/31 08:53:12;;;;;;;1.30;1.10;;;;;;;9.88;100.00;95345.84;5009526;28;105471;-82
2023/10/31 08:55:39;;;;;;;7.07;1.50;;;;;;;9.82;100.00;95341.63;5009299;28;104072;-82
2023/10/31 08:58:08;;;;;;;2.57;1.30;;;;;;;9.86;100.00;95340.03;5009785;28;101938;-82
2023/10/31 09:00:35;;;;;;;4.87;1.77;;;;;;;9.83;100.00;95340.56;5011976;28;104548;-82
2023/10/31 09:03:02;;;;;;;2.67;1.30;;;;;;;9.86;100.00;95339.25;5009267;28;102064;-82
2023/10/31 09:05:30;;;;;;;1.30;1.20;;;;;;;9.87;100.00;95335.53;5009179;28;105811;-83
2023/10/31 09:07:57;;;;;;;1.37;1.13;;;;;;;9.85;100.00;95338.44;5005491;28;105528;-82
2023/10/31 09:10:24;;;;;;;0.90;0.63;;;;;;;9.91;100.00;95342.66;4989810;28;102049;-82
2023/10/31 09:12:51;;;;;;;0.90;0.83;;;;;;;9.95;100.00;95341.06;5006645;28;104438;-82
2023/10/31 09:15:21;;;;;;;2.13;1.10;;;;;;;9.94;100.00;95343.97;5008679;28;105164;-82
2023/10/31 09:17:48;;;;;;;2.27;0.90;;;;;;;9.96;100.00;95344.50;5009266;28;102016;-82
2023/10/31 09:20:15;;;;;;;1.23;0.70;;;;;;;9.94;100.00;95336.00;5007644;28;105060;-82
2023/10/31 09:22:41;;;;;;;2.07;0.73;;;;;;;9.98;100.00;95339.72;5011957;28;101976;-82
2023/10/31 09:25:10;;;;;;;2.23;1.30;;;;;;;10.01;100.00;95341.81;5009365;28;105134;-82
2023/10/31 09:27:38;;;;;;;1.40;0.70;;;;;;;10.04;100.00;95342.09;5009958;28;102992;-82
2023/10/31 09:30:07;;;;;;;1.80;1.00;;;;;;;10.03;100.00;95342.38;5009048;28;102011;-82
2023/10/31 09:32:35;;;;;;;2.93;1.10;;;;;;;10.08;100.00;95361.75;5010314;28;102910;-82
2023/10/31 09:35:02;;;;;;;1.03;0.80;;;;;;;10.08;100.00;95368.94;5008454;28;105725;-82
2023/10/31 09:37:29;;;;;;;2.43;0.93;;;;;;;10.07;100.00;95368.13;5009202;28;101838;-82
2023/10/31 09:39:56;;;;;;;1.23;0.77;;;;;;;10.07;100.00;95376.09;5009299;28;105969;-82
2023/10/31 09:42:23;;;;;;;1.53;1.00;;;;;;;10.07;100.00;95370.78;5008536;28;105368;-82
2023/10/31 09:44:50;;;;;;;4.73;0.93;;;;;;;10.09;100.00;95383.81;4999223;28;102870;-82
2023/10/31 09:47:17;;;;;;;3.70;0.90;;;;;;;10.09;100.00;95386.47;5010313;28;102787;-82
2023/10/31 09:49:46;;;;;;;2.00;0.90;;;;;;;10.08;100.00;95395.50;5009806;28;101896;-82
2023/10/31 09:52:13;;;;;;;3.73;1.00;;;;;;;10.09;100.00;95407.72;5008425;28;104117;-82
2023/10/31 09:54:42;;;;;;;2.80;1.00;;;;;;;10.10;100.00;95407.44;5008312;28;104994;-82
2023/10/31 09:57:11;;;;;;;4.40;1.20;;;;;;;10.06;100.00;95417.00;5009284;28;101946;-82
2023/10/31 09:59:37;;;;;;;0.97;0.80;;;;;;;10.08;100.00;95417.53;5009047;28;104977;-82
2023/10/31 10:02:05;;;;;;;2.30;1.00;;;;;;;10.13;100.00;95420.16;5008554;28;105819;-82
2023/10/31 10:04:32;;;;;;;3.37;1.30;;;;;;;10.16;100.00;95424.16;5012235;28;102008;-82
2023/10/31 10:07:02;;;;;;;3.90;1.10;;;;;;;10.17;100.00;95423.06;5008332;28;105614;-82
2023/10/31 10:09:30;;;;;;;1.73;1.00;;;;;;;10.14;100.00;95427.06;5025070;28;102003;-82
2023/10/31 10:11:58;;;;;;;3.27;1.03;;;;;;;10.15;100.00;95423.34;5008744;28;105175;-82
2023/10/31 10:14:26;;;;;;;2.23;0.90;;;;;;;10.13;100.00;95430.00;5007953;28;105881;-82
2023/10/31 10:16:53;;;;;;;2.50;1.17;;;;;;;10.15;100.00;95422.56;5025600;28;101969;-82
2023/10/31 10:19:22;;;;;;;1.57;1.10;;;;;;;10.16;100.00;95418.84;5025249;28;105880;-82
2023/10/31 10:21:50;;;;;;;2.53;1.00;;;;;;;10.19;100.00;95426.28;5007557;28;104134;-82
2023/10/31 10:24:20;;;;;;;1.50;1.10;;;;;;;10.23;100.00;95430.75;5008362;28;102034;-82
2023/10/31 10:26:48;;;;;;;3.97;1.27;;;;;;;10.24;100.00;95427.03;5011151;28;105400;-82
2023/10/31 10:29:15;;;;;;;1.40;1.30;;;;;;;10.27;100.00;95433.66;5025160;28;101964;-82
2023/10/31 10:31:44;;;;;;;1.37;1.07;;;;;;;10.24;100.00;95432.34;5010810;28;105139;-82
2023/10/31 10:34:12;;;;;;;2.33;1.13;;;;;;;10.24;100.00;95432.34;5011181;28;105081;-82
2023/10/31 10:36:40;;;;;;;0.90;0.90;;;;;;;10.24;100.00;95440.31;5011816;28;101946;-82
2023/10/31 10:39:09;;;;;;;1.20;0.87;;;;;;;10.30;100.00;95441.13;5013438;28;104956;-82
2023/10/31 10:41:42;;;;;;;1.03;0.93;;;;;;;10.33;100.00;95440.56;5012483;28;102751;-82
2023/10/31 10:44:11;;;;;;;1.50;0.90;;;;;;;10.36;100.00;95442.69;5012004;28;102085;-82
2023/10/31 10:46:40;;;;;;;1.20;0.80;;;;;;;10.43;100.00;95449.31;5011900;28;105883;-82
2023/10/31 10:49:08;;;;;;;1.63;1.00;;;;;;;10.48;100.00;95449.25;5014340;28;105640;-82
2023/10/31 10:51:45;;;;;;;2.47;1.10;;;;;;;10.48;100.00;95448.47;5011893;28;105258;-82
2023/10/31 10:54:19;;;;;;;1.20;0.90;;;;;;;10.44;100.00;95447.44;5010800;28;105897;-82
2023/10/31 10:56:56;;;;;;;1.43;0.67;;;;;;;10.60;100.00;95446.28;5011940;28;101793;-82
2023/10/31 10:59:33;;;;;;;0.77;0.77;;;;;;;10.66;100.00;95442.53;5011499;28;105486;-82
2023/10/31 11:02:02;;;;;;;1.03;0.93;;;;;;;10.71;100.00;95430.03;5011173;28;105930;-82
2023/10/31 11:04:29;;;;;;;0.70;0.70;;;;;;;10.60;100.00;95430.34;5010837;28;102077;-82
2023/10/31 11:06:57;;;;;;;3.30;0.80;;;;;;;10.59;100.00;95428.75;5028113;28;104859;-82
2023/10/31 11:09:25;;;;;;;0.77;0.77;;;;;;;10.60;100.00;95425.84;5010601;28;105749;-82
2023/10/31 11:11:54;;;;;;;0.93;0.80;;;;;;;10.59;100.00;95412.81;5014961;28;101922;-82
2023/10/31 11:14:22;;;;;;;1.87;1.00;;;;;;;10.58;100.00;95405.91;5027271;28;106186;-82
2023/10/31 11:16:54;;;;;;;3.20;1.50;;;;;;;10.61;100.00;95405.34;5011720;28;102042;-82
2023/10/31 11:19:22;;;;;;;2.60;1.60;;;;;;;10.63;100.00;95404.00;5011716;28;105095;-82
2023/10/31 11:21:56;;;;;;;1.00;0.90;;;;;;;10.61;100.00;95405.34;5010400;28;105872;-82
2023/10/31 11:24:24;;;;;;;1.57;0.90;;;;;;;10.64;100.00;95410.13;5012812;28;101704;-82